Time;durP1;ratioP1;P1;durP2;ratioP2;P2;SDS_P1;SDS_P2;PMS_P1;PMS_P2;Temp;Humidity;BMP_temperature;BMP_pressure;BME280_temperature;BME280_humidity;BME280_pressure;Samples;Min_cycle;Max_cycle;Signal;HPM_P1;HPM_P2
2022/05/12 00:01:50;;;;;;;13.90;10.48;;;;;;;13.70;nan;-24199.41;5069906;28;20280;-63
2022/05/12 00:04:16;;;;;;;14.13;10.10;;;;;;;14.01;nan;-24208.09;5069944;28;20188;-62
2022/05/12 00:06:41;;;;;;;15.45;9.85;;;;;;;13.89;nan;-24204.72;5070251;28;20602;-64
2022/05/12 00:09:07;;;;;;;13.93;9.95;;;;;;;13.63;nan;-24197.56;5069975;28;20644;-61
2022/05/12 00:11:32;;;;;;;16.30;10.48;;;;;;;13.50;nan;-24193.78;5075840;28;20169;-61
2022/05/12 00:13:58;;;;;;;14.80;10.10;;;;;;;13.75;nan;-24200.81;5073236;28;20209;-64
2022/05/12 00:16:23;;;;;;;18.98;9.73;;;;;;;13.54;nan;-24194.91;5072289;28;20237;-62
2022/05/12 00:18:48;;;;;;;14.30;10.13;;;;;;;13.61;nan;-24197.00;5072438;28;20223;-63
2022/05/12 00:21:14;;;;;;;14.38;10.38;;;;;;;13.71;nan;-24199.69;5069484;28;20570;-66
2022/05/12 00:23:40;;;;;;;14.63;10.30;;;;;;;13.72;nan;-24199.97;5072889;28;20636;-65
2022/05/12 00:26:05;;;;;;;14.38;10.48;;;;;;;13.72;nan;-24199.97;5074387;28;20182;-63
2022/05/12 00:28:31;;;;;;;13.07;10.10;;;;;;;13.54;nan;-24195.03;5075041;28;20637;-64
2022/05/12 00:30:57;;;;;;;18.65;10.30;;;;;;;13.68;nan;-24198.97;5074369;28;20605;-62
2022/05/12 00:33:27;;;;;;;15.30;10.13;;;;;;;13.61;nan;-24196.88;5075173;28;20220;-62
2022/05/12 00:35:52;;;;;;;15.40;10.00;;;;;;;13.71;nan;-24199.69;5069803;28;20729;-63
2022/05/12 00:38:18;;;;;;;16.98;9.85;;;;;;;13.68;nan;-24198.84;5067374;28;20194;-64
2022/05/12 00:40:46;;;;;;;13.40;10.27;;;;;;;13.54;nan;-24195.03;5069354;28;20186;-66
2022/05/12 00:43:45;;;;;;;13.98;10.07;;;;;;;13.59;nan;-24196.31;5072051;28;20213;-63
2022/05/12 00:46:17;;;;;;;13.45;9.70;;;;;;;13.64;nan;-24197.84;5070049;28;20181;-64
2022/05/12 00:48:44;;;;;;;14.68;10.00;;;;;;;13.43;nan;-24191.94;5070235;28;20558;-62
2022/05/12 00:51:14;;;;;;;13.25;9.82;;;;;;;13.60;nan;-24196.72;5068611;28;20197;-64
2022/05/12 00:53:40;;;;;;;12.02;8.57;;;;;;;13.45;nan;-24192.53;5069177;28;20218;-64
2022/05/12 00:56:17;;;;;;;12.15;8.95;;;;;;;13.59;nan;-24196.31;5070797;28;20186;-64
2022/05/12 00:58:45;;;;;;;13.02;9.57;;;;;;;13.47;nan;-24192.94;5066821;28;20185;-64
2022/05/12 01:01:11;;;;;;;12.73;8.77;;;;;;;13.27;nan;-24187.59;5070033;28;20178;-62
2022/05/12 01:03:39;;;;;;;11.38;8.57;;;;;;;13.44;nan;-24192.25;5070411;28;20249;-64
2022/05/12 01:06:07;;;;;;;12.80;8.52;;;;;;;13.38;nan;-24190.41;5072396;28;20678;-62
2022/05/12 01:08:33;;;;;;;11.95;9.02;;;;;;;13.48;nan;-24193.22;5072910;28;20182;-64
2022/05/12 01:11:03;;;;;;;14.50;9.27;;;;;;;13.29;nan;-24188.03;5068863;28;20205;-64
2022/05/12 01:13:29;;;;;;;10.48;7.70;;;;;;;13.35;nan;-24189.56;5067662;28;20666;-65
2022/05/12 01:15:59;;;;;;;13.48;8.55;;;;;;;13.24;nan;-24186.75;5066785;28;20182;-64
2022/05/12 01:18:28;;;;;;;13.18;9.05;;;;;;;13.36;nan;-24189.84;5068443;28;20178;-65
2022/05/12 01:20:54;;;;;;;12.98;8.73;;;;;;;13.63;nan;-24197.44;5067924;28;20177;-63
2022/05/12 01:23:29;;;;;;;11.93;8.32;;;;;;;13.67;nan;-24198.56;5067877;28;20177;-62
2022/05/12 01:26:00;;;;;;;34.47;8.57;;;;;;;13.28;nan;-24187.75;5083675;28;20204;-63
2022/05/12 01:28:27;;;;;;;29.90;7.88;;;;;;;13.41;nan;-24191.25;5068949;28;21329;-66
2022/05/12 01:30:52;;;;;;;14.15;8.00;;;;;;;13.35;nan;-24189.56;5068727;28;20177;-63
2022/05/12 01:33:18;;;;;;;9.55;7.00;;;;;;;12.87;nan;-24176.22;5068024;28;20554;-64
2022/05/12 01:35:44;;;;;;;12.07;7.35;;;;;;;13.07;nan;-24181.84;5067351;28;20180;-62
2022/05/12 01:38:09;;;;;;;9.50;6.95;;;;;;;12.94;nan;-24178.31;5068005;28;20173;-65
2022/05/12 01:40:35;;;;;;;9.65;7.55;;;;;;;13.13;nan;-24183.53;5065800;28;20177;-64
2022/05/12 01:43:01;;;;;;;12.48;8.20;;;;;;;13.17;nan;-24184.66;5067408;28;20264;-64
2022/05/12 01:45:27;;;;;;;11.48;8.40;;;;;;;12.89;nan;-24176.91;5066928;28;20178;-61
2022/05/12 01:47:52;;;;;;;10.85;7.78;;;;;;;13.07;nan;-24181.97;5066720;28;20306;-63
2022/05/12 01:50:19;;;;;;;9.70;7.40;;;;;;;13.17;nan;-24184.78;5068026;28;20604;-66
2022/05/12 01:52:45;;;;;;;9.50;7.30;;;;;;;13.00;nan;-24179.88;5066748;28;20194;-65
2022/05/12 01:55:17;;;;;;;14.63;7.55;;;;;;;12.81;nan;-24174.66;5066396;28;20599;-65
2022/05/12 01:57:43;;;;;;;9.70;6.85;;;;;;;12.67;nan;-24170.72;5066523;28;20174;-65
2022/05/12 02:00:12;;;;;;;9.82;6.93;;;;;;;12.69;nan;-24171.28;5067331;28;20181;-65
2022/05/12 02:02:38;;;;;;;12.88;7.40;;;;;;;13.02;nan;-24180.56;5066826;28;20670;-64
2022/05/12 02:05:05;;;;;;;14.50;7.70;;;;;;;13.02;nan;-24180.44;5067334;28;20832;-64
2022/05/12 02:07:30;;;;;;;13.38;6.85;;;;;;;12.95;nan;-24178.59;5067151;28;20564;-64
2022/05/12 02:09:56;;;;;;;8.70;7.22;;;;;;;12.80;nan;-24174.38;5067304;28;20177;-64
2022/05/12 02:12:21;;;;;;;11.93;7.25;;;;;;;12.82;nan;-24174.94;5067775;28;20200;-65
2022/05/12 02:14:46;;;;;;;9.70;7.18;;;;;;;12.99;nan;-24179.59;5067204;28;20205;-65
2022/05/12 02:17:12;;;;;;;10.30;7.43;;;;;;;13.10;nan;-24182.81;5071491;28;20192;-65
2022/05/12 02:19:37;;;;;;;9.98;7.15;;;;;;;12.80;nan;-24174.38;5070700;28;20244;-65
2022/05/12 02:22:03;;;;;;;11.45;7.30;;;;;;;12.96;nan;-24178.75;5071121;28;20225;-63
2022/05/12 02:24:29;;;;;;;9.63;7.50;;;;;;;12.75;nan;-24173.13;5069799;28;20188;-63
2022/05/12 02:26:56;;;;;;;11.85;7.68;;;;;;;12.73;nan;-24172.41;5072364;28;20316;-64
2022/05/12 02:29:23;;;;;;;10.40;7.57;;;;;;;12.99;nan;-24179.59;5071636;28;20181;-64
2022/05/12 02:31:48;;;;;;;10.73;7.65;;;;;;;12.92;nan;-24177.63;5070540;28;20197;-65
2022/05/12 02:34:14;;;;;;;12.55;8.25;;;;;;;12.90;nan;-24177.19;5070888;28;20202;-64
2022/05/12 02:36:39;;;;;;;15.43;8.02;;;;;;;12.49;nan;-24165.81;5070568;28;20219;-65
2022/05/12 02:39:05;;;;;;;15.45;9.10;;;;;;;12.88;nan;-24176.63;5071571;28;20197;-61
2022/05/12 02:41:30;;;;;;;22.00;7.65;;;;;;;12.53;nan;-24166.94;5071802;28;20182;-65
2022/05/12 02:43:56;;;;;;;9.85;7.60;;;;;;;12.72;nan;-24172.13;5070199;28;20182;-63
2022/05/12 02:46:22;;;;;;;10.88;7.75;;;;;;;12.76;nan;-24173.41;5071085;28;20171;-62
2022/05/12 02:48:50;;;;;;;11.13;8.02;;;;;;;12.85;nan;-24175.78;5071857;28;20260;-65
2022/05/12 02:51:15;;;;;;;12.68;7.38;;;;;;;12.65;nan;-24170.16;5071419;28;20824;-63
2022/05/12 02:53:41;;;;;;;12.77;7.15;;;;;;;12.40;nan;-24163.28;5072151;28;20351;-64
2022/05/12 02:56:08;;;;;;;11.90;8.63;;;;;;;12.25;nan;-24159.06;5072171;28;20217;-65
2022/05/12 02:58:34;;;;;;;12.30;7.88;;;;;;;12.04;nan;-24153.28;5071599;28;20222;-63
2022/05/12 03:01:00;;;;;;;11.25;8.20;;;;;;;12.26;nan;-24159.47;5072016;28;20177;-62
2022/05/12 03:03:26;;;;;;;12.30;7.43;;;;;;;12.24;nan;-24158.78;5071449;28;20193;-64
2022/05/12 03:05:53;;;;;;;13.77;8.43;;;;;;;12.45;nan;-24164.53;5071992;28;20546;-64
2022/05/12 03:08:19;;;;;;;17.27;8.95;;;;;;;12.10;nan;-24154.97;5071094;28;20664;-65
2022/05/12 03:10:45;;;;;;;11.88;8.50;;;;;;;12.52;nan;-24166.50;5072113;28;20166;-62
2022/05/12 03:13:11;;;;;;;12.25;8.63;;;;;;;12.77;nan;-24173.53;5071048;28;20252;-66
2022/05/12 03:15:37;;;;;;;11.88;8.50;;;;;;;12.57;nan;-24167.91;5069567;28;20218;-63
2022/05/12 03:18:03;;;;;;;11.13;8.15;;;;;;;13.06;nan;-24181.56;5070495;28;20781;-65
2022/05/12 03:20:32;;;;;;;12.18;8.10;;;;;;;13.08;nan;-24182.13;5073417;28;20277;-65
2022/05/12 03:22:59;;;;;;;10.77;8.10;;;;;;;13.66;nan;-24198.41;5071399;28;20173;-64
2022/05/12 03:25:24;;;;;;;13.50;8.93;;;;;;;14.32;nan;-24216.66;5066968;28;20556;-64
2022/05/12 03:27:50;;;;;;;13.40;7.95;;;;;;;14.56;nan;-24223.41;5065527;28;20182;-64
2022/05/12 03:30:22;;;;;;;10.25;7.60;;;;;;;14.99;nan;-24235.16;5066295;28;20668;-62
2022/05/12 03:32:48;;;;;;;15.38;7.53;;;;;;;15.29;nan;-24243.44;5065623;28;20212;-62
2022/05/12 03:35:14;;;;;;;11.70;7.88;;;;;;;15.82;nan;-24258.13;5065262;28;20193;-63
2022/05/12 03:37:41;;;;;;;14.90;8.30;;;;;;;15.66;nan;-24253.66;5066068;28;21022;-63
2022/05/12 03:40:08;;;;;;;11.35;7.80;;;;;;;15.44;nan;-24247.78;5065608;28;20738;-66
2022/05/12 03:42:33;;;;;;;12.73;7.85;;;;;;;15.57;nan;-24251.28;5066731;28;20186;-64
2022/05/12 03:44:59;;;;;;;11.55;7.30;;;;;;;16.49;nan;-24276.72;5098413;27;20191;-66
2022/05/12 03:47:32;;;;;;;9.52;6.78;;;;;;;17.83;nan;-24313.75;5066662;28;20177;-63
2022/05/12 03:50:21;;;;;;;8.27;6.40;;;;;;;18.92;nan;-24343.69;5065954;28;20205;-65
2022/05/12 03:52:52;;;;;;;9.10;6.93;;;;;;;19.83;nan;-24368.88;5064416;28;20178;-65
2022/05/12 03:55:21;;;;;;;10.63;6.55;;;;;;;20.47;nan;-24386.25;5068519;28;20228;-64
2022/05/12 03:57:48;;;;;;;9.88;6.78;;;;;;;21.04;nan;-24402.06;5067678;28;20186;-64
2022/05/12 04:00:21;;;;;;;10.27;6.65;;;;;;;21.76;nan;-24421.59;5065866;28;20186;-66
2022/05/12 04:02:48;;;;;;;11.13;5.85;;;;;;;22.68;nan;-24446.78;5069639;28;20190;-69
2022/05/12 04:05:14;;;;;;;9.38;5.80;;;;;;;22.80;nan;-24450.25;5070057;28;20695;-67
2022/05/12 04:07:41;;;;;;;8.80;5.82;;;;;;;23.41;nan;-24466.81;5065801;28;20303;-63
2022/05/12 04:10:07;;;;;;;8.73;5.53;;;;;;;23.93;nan;-24480.91;5066885;28;20177;-64
2022/05/12 04:12:33;;;;;;;10.18;6.07;;;;;;;24.25;nan;-24489.59;5068715;28;20257;-65
2022/05/12 04:14:59;;;;;;;9.07;6.50;;;;;;;24.61;nan;-24499.66;5067780;28;20257;-65
2022/05/12 04:17:25;;;;;;;7.57;5.85;;;;;;;24.97;nan;-24509.44;5068331;28;20181;-64
2022/05/12 04:19:52;;;;;;;9.85;5.75;;;;;;;25.09;nan;-24512.63;5075282;28;20197;-63
2022/05/12 04:22:18;;;;;;;14.20;6.85;;;;;;;25.01;nan;-24510.56;5071715;28;20253;-64
2022/05/12 04:24:45;;;;;;;8.70;6.10;;;;;;;25.00;nan;-24510.13;5070504;28;20184;-63
2022/05/12 04:27:12;;;;;;;14.00;6.22;;;;;;;24.91;nan;-24507.78;5068035;28;20173;-63
2022/05/12 04:29:43;;;;;;;14.70;6.65;;;;;;;24.97;nan;-24509.44;5067003;28;20213;-65
2022/05/12 04:32:09;;;;;;;8.00;5.80;;;;;;;24.70;nan;-24501.88;5067501;28;20186;-65
2022/05/12 04:37:30;;;;;;;9.13;6.07;;;;;;;23.47;nan;-24468.34;5070019;28;20258;-65
2022/05/12 04:40:12;;;;;;;8.68;5.82;;;;;;;23.70;nan;-24474.84;5068555;28;20201;-64
2022/05/12 04:42:37;;;;;;;12.80;6.00;;;;;;;23.28;nan;-24463.25;5067719;28;20616;-65
2022/05/12 04:45:05;;;;;;;11.02;5.57;;;;;;;23.09;nan;-24458.00;5069854;28;20627;-63
2022/05/12 04:47:32;;;;;;;20.25;6.50;;;;;;;22.98;nan;-24455.09;5066286;28;20867;-65
2022/05/12 04:49:58;;;;;;;10.25;6.43;;;;;;;22.72;nan;-24448.03;5068167;28;20177;-64
2022/05/12 04:52:25;;;;;;;12.05;7.15;;;;;;;22.85;nan;-24451.50;5068230;28;20256;-67
2022/05/12 04:54:50;;;;;;;12.80;6.38;;;;;;;22.55;nan;-24443.19;5070114;28;20285;-64
2022/05/12 04:57:16;;;;;;;18.42;6.93;;;;;;;22.68;nan;-24446.94;5067984;28;20181;-67
2022/05/12 04:59:42;;;;;;;13.38;7.35;;;;;;;22.60;nan;-24444.72;5068608;28;20268;-66
2022/05/12 05:02:07;;;;;;;12.55;7.40;;;;;;;22.13;nan;-24431.84;5065915;28;20189;-67
2022/05/12 05:04:32;;;;;;;15.52;7.20;;;;;;;22.14;nan;-24432.00;5067948;28;20219;-67
2022/05/12 05:06:58;;;;;;;35.85;6.50;;;;;;;21.93;nan;-24426.31;5077458;28;20243;-66
2022/05/12 05:09:23;;;;;;;8.93;4.35;;;;;;;21.69;nan;-24419.78;5068394;28;20201;-65
2022/05/12 05:11:50;;;;;;;10.13;4.15;;;;;;;21.84;nan;-24423.94;5073728;28;20180;-63
2022/05/12 05:14:16;;;;;;;7.18;3.65;;;;;;;21.48;nan;-24413.97;5068009;28;20198;-65
2022/05/12 05:16:42;;;;;;;4.80;2.95;;;;;;;21.56;nan;-24416.34;5067595;28;20181;-66
2022/05/12 05:19:07;;;;;;;5.45;3.28;;;;;;;20.67;nan;-24391.78;5067162;28;20436;-67
2022/05/12 05:21:33;;;;;;;4.50;2.95;;;;;;;20.39;nan;-24384.16;5067498;28;20178;-66
2022/05/12 05:23:58;;;;;;;6.13;3.80;;;;;;;19.98;nan;-24372.75;5069344;28;20797;-65
2022/05/12 05:26:24;;;;;;;4.38;3.17;;;;;;;19.87;nan;-24369.84;5073342;28;20185;-63
2022/05/12 05:28:50;;;;;;;5.03;2.88;;;;;;;19.45;nan;-24358.31;5078732;28;20188;-64
2022/05/12 05:31:16;;;;;;;5.88;3.17;;;;;;;19.41;nan;-24357.34;5073526;28;20185;-66
2022/05/12 05:33:42;;;;;;;5.47;3.25;;;;;;;18.42;nan;-24330.03;5111323;27;20277;-64
2022/05/12 05:36:07;;;;;;;4.90;2.90;;;;;;;19.12;nan;-24349.25;5101519;27;20192;-63
2022/05/12 05:38:33;;;;;;;6.35;3.10;;;;;;;19.18;nan;-24350.78;5070550;28;20181;-63
2022/05/12 05:40:58;;;;;;;6.72;3.42;;;;;;;19.29;nan;-24353.84;5072067;28;20210;-66
2022/05/12 05:43:26;;;;;;;6.90;3.50;;;;;;;19.23;nan;-24352.31;5072568;28;20279;-63
2022/05/12 05:45:52;;;;;;;6.88;3.97;;;;;;;19.03;nan;-24346.63;5072823;28;20177;-67
2022/05/12 05:48:18;;;;;;;6.50;3.20;;;;;;;18.95;nan;-24344.53;5070915;28;20177;-63
2022/05/12 05:53:35;;;;;;;8.07;3.80;;;;;;;18.81;nan;-24340.63;5071163;28;20682;-66
2022/05/12 05:56:05;;;;;;;5.78;3.75;;;;;;;18.98;nan;-24345.38;5071865;28;20169;-64
2022/05/12 05:58:30;;;;;;;6.75;3.40;;;;;;;18.91;nan;-24343.41;5075822;28;20660;-63
2022/05/12 06:00:56;;;;;;;7.20;3.92;;;;;;;19.07;nan;-24347.72;5072663;28;20181;-62
2022/05/12 06:03:22;;;;;;;5.45;3.28;;;;;;;19.33;nan;-24354.97;5073395;28;20196;-62
2022/05/12 06:05:48;;;;;;;4.72;2.90;;;;;;;19.22;nan;-24352.03;5074083;28;20197;-67
2022/05/12 06:08:15;;;;;;;4.93;3.38;;;;;;;19.65;nan;-24363.72;5077915;28;20182;-62
2022/05/12 06:10:43;;;;;;;4.35;3.20;;;;;;;19.79;nan;-24367.63;5074738;28;20190;-67
2022/05/12 06:13:09;;;;;;;4.38;2.80;;;;;;;20.16;nan;-24377.91;5075902;28;20258;-64
2022/05/12 06:15:35;;;;;;;4.43;2.78;;;;;;;20.18;nan;-24378.47;5072347;28;20205;-64
2022/05/12 06:18:13;;;;;;;6.88;3.97;;;;;;;20.58;nan;-24389.44;5070215;28;20237;-64
2022/05/12 06:20:41;;;;;;;5.50;2.53;;;;;;;20.52;nan;-24387.75;5075394;28;20181;-66
2022/05/12 06:23:08;;;;;;;5.25;3.05;;;;;;;20.85;nan;-24396.78;5072422;28;20331;-64
2022/05/12 06:25:35;;;;;;;3.00;2.50;;;;;;;20.29;nan;-24381.50;5074250;28;20196;-66
2022/05/12 06:28:03;;;;;;;4.30;2.70;;;;;;;20.41;nan;-24384.72;5072221;28;20653;-67
2022/05/12 06:30:29;;;;;;;4.68;2.63;;;;;;;20.56;nan;-24388.75;5073795;28;20197;-66
2022/05/12 06:32:56;;;;;;;5.10;2.33;;;;;;;20.79;nan;-24394.97;5075316;28;20822;-64
2022/05/12 06:35:23;;;;;;;4.57;3.15;;;;;;;20.70;nan;-24392.63;5070647;28;20217;-66
2022/05/12 06:37:49;;;;;;;3.50;2.67;;;;;;;20.63;nan;-24390.81;5073581;28;20182;-64
2022/05/12 06:40:16;;;;;;;4.82;2.53;;;;;;;21.19;nan;-24405.94;5075175;28;20182;-62
2022/05/12 06:42:42;;;;;;;4.88;2.60;;;;;;;20.92;nan;-24398.72;5070232;28;20173;-62
2022/05/12 06:45:15;;;;;;;3.63;2.47;;;;;;;21.12;nan;-24404.13;5077385;28;20209;-64
2022/05/12 06:47:50;;;;;;;4.25;2.47;;;;;;;21.39;nan;-24411.50;5072112;28;20174;-67
2022/05/12 06:50:21;;;;;;;3.42;2.42;;;;;;;21.34;nan;-24410.09;5074995;28;20185;-66
2022/05/12 06:52:47;;;;;;;4.57;2.42;;;;;;;20.78;nan;-24394.84;5070059;28;20728;-64
2022/05/12 06:55:13;;;;;;;3.83;2.85;;;;;;;21.52;nan;-24415.22;5070432;28;20282;-64
2022/05/12 06:57:39;;;;;;;3.17;2.20;;;;;;;21.10;nan;-24403.56;5067046;28;20193;-64
2022/05/12 07:00:08;;;;;;;3.80;2.30;;;;;;;21.43;nan;-24412.59;5071823;28;20420;-67
2022/05/12 07:02:35;;;;;;;3.25;2.33;;;;;;;21.48;nan;-24414.13;5074240;28;20792;-65
2022/05/12 07:05:01;;;;;;;3.65;2.35;;;;;;;21.73;nan;-24420.91;5071793;28;20197;-66
2022/05/12 07:07:28;;;;;;;4.03;2.60;;;;;;;21.74;nan;-24421.19;5076600;28;20186;-65
2022/05/12 07:09:54;;;;;;;4.05;2.70;;;;;;;22.29;nan;-24436.28;5076414;28;20185;-65
2022/05/12 07:12:21;;;;;;;3.85;2.42;;;;;;;22.65;nan;-24445.97;5076079;28;20656;-63
2022/05/12 07:14:46;;;;;;;2.80;2.05;;;;;;;22.31;nan;-24436.84;5077237;28;20703;-64
2022/05/12 07:17:12;;;;;;;3.58;2.70;;;;;;;22.47;nan;-24441.25;5076979;28;20177;-64
2022/05/12 07:19:37;;;;;;;2.92;2.20;;;;;;;22.96;nan;-24454.53;5074178;28;20178;-66
2022/05/12 07:27:31;;;;;;;4.25;2.70;;;;;;;23.01;nan;-24455.91;5076224;28;20605;-64
2022/05/12 07:29:57;;;;;;;4.85;2.03;;;;;;;22.98;nan;-24455.09;5074053;28;20170;-64
2022/05/12 07:32:22;;;;;;;3.30;2.28;;;;;;;23.02;nan;-24456.06;5075561;28;20278;-66
2022/05/12 07:34:48;;;;;;;4.05;2.67;;;;;;;22.90;nan;-24453.00;5073728;28;20197;-63
2022/05/12 07:37:14;;;;;;;3.00;2.08;;;;;;;23.02;nan;-24456.19;5073055;28;20181;-64
2022/05/12 07:39:40;;;;;;;2.67;2.20;;;;;;;23.53;nan;-24470.16;5078382;28;20182;-66
2022/05/12 07:42:05;;;;;;;3.10;2.17;;;;;;;23.74;nan;-24475.81;5073681;28;20563;-66
2022/05/12 07:44:34;;;;;;;3.25;2.20;;;;;;;23.42;nan;-24467.09;5077846;28;20231;-66
2022/05/12 07:47:06;;;;;;;3.05;2.50;;;;;;;23.46;nan;-24468.22;5076733;28;20201;-68
2022/05/12 07:49:36;;;;;;;3.83;2.30;;;;;;;23.52;nan;-24469.88;5074174;28;20767;-66
2022/05/12 07:52:04;;;;;;;3.22;2.33;;;;;;;23.70;nan;-24474.69;5079866;28;20178;-66
2022/05/12 07:54:29;;;;;;;3.00;2.00;;;;;;;23.86;nan;-24479.13;5073471;28;20312;-63
2022/05/12 07:56:55;;;;;;;3.97;2.75;;;;;;;23.88;nan;-24479.53;5073307;28;20170;-65
2022/05/12 07:59:21;;;;;;;3.40;2.40;;;;;;;23.79;nan;-24477.19;5073215;28;20617;-65
2022/05/12 08:01:47;;;;;;;3.10;2.35;;;;;;;23.97;nan;-24482.00;5073310;28;20174;-65
2022/05/12 08:04:13;;;;;;;3.63;2.42;;;;;;;24.34;nan;-24492.22;5073317;28;20279;-65
2022/05/12 08:06:40;;;;;;;3.03;2.28;;;;;;;24.66;nan;-24500.91;5073395;28;20227;-65
2022/05/12 08:09:05;;;;;;;2.60;2.00;;;;;;;24.60;nan;-24499.38;5075952;28;20190;-66
2022/05/12 08:11:31;;;;;;;3.55;2.50;;;;;;;24.71;nan;-24502.16;5075407;28;20199;-64
2022/05/12 08:13:57;;;;;;;2.83;2.30;;;;;;;24.26;nan;-24489.88;5075034;28;20209;-67
2022/05/12 08:16:23;;;;;;;2.85;2.22;;;;;;;24.24;nan;-24489.47;5074764;28;20189;-65
2022/05/12 08:18:50;;;;;;;4.03;2.55;;;;;;;24.84;nan;-24505.88;5076947;28;20181;-65
2022/05/12 08:21:17;;;;;;;2.95;2.20;;;;;;;24.71;nan;-24502.28;5075199;28;20180;-66
2022/05/12 08:23:43;;;;;;;3.10;2.33;;;;;;;24.65;nan;-24500.63;5078866;28;20182;-66
2022/05/12 08:26:10;;;;;;;4.22;2.67;;;;;;;24.88;nan;-24506.97;5078210;28;20435;-66
2022/05/12 08:28:37;;;;;;;3.10;2.17;;;;;;;24.58;nan;-24498.84;5074157;28;20182;-66
2022/05/12 08:31:03;;;;;;;3.00;2.00;;;;;;;24.40;nan;-24493.75;5073650;28;21897;-64
2022/05/12 08:33:29;;;;;;;3.10;2.70;;;;;;;25.02;nan;-24510.81;5070504;28;20231;-66
2022/05/12 08:35:54;;;;;;;3.17;2.30;;;;;;;25.29;nan;-24517.97;5074267;28;20761;-64
2022/05/12 08:38:21;;;;;;;3.38;2.28;;;;;;;25.16;nan;-24514.41;5076419;28;20265;-67
2022/05/12 08:41:02;;;;;;;3.65;2.60;;;;;;;25.47;nan;-24523.06;5071503;28;20180;-63
2022/05/12 08:43:56;;;;;;;3.10;2.17;;;;;;;25.55;nan;-24525.00;5075302;28;20177;-66
2022/05/12 08:46:36;;;;;;;2.50;2.08;;;;;;;25.53;nan;-24524.72;5066856;28;20604;-63
2022/05/12 08:49:10;;;;;;;3.40;2.40;;;;;;;25.27;nan;-24517.56;5069962;28;20249;-65
2022/05/12 08:51:36;;;;;;;3.30;2.35;;;;;;;25.66;nan;-24528.16;5067916;28;20178;-64
2022/05/12 08:54:07;;;;;;;2.65;2.20;;;;;;;25.56;nan;-24525.28;5067673;28;20317;-66
2022/05/12 08:56:35;;;;;;;2.65;2.10;;;;;;;25.82;nan;-24532.56;5067949;28;20177;-63
2022/05/12 08:59:01;;;;;;;2.65;1.98;;;;;;;25.69;nan;-24528.84;5068544;28;20185;-62
2022/05/12 09:02:17;;;;;;;2.95;2.10;;;;;;;25.91;nan;-24535.03;5068040;28;20276;-66
2022/05/12 09:05:00;;;;;;;2.67;2.10;;;;;;;25.81;nan;-24532.16;5042443;28;20197;-66
2022/05/12 09:07:31;;;;;;;3.10;2.22;;;;;;;25.60;nan;-24526.50;5068218;28;20607;-64
2022/05/12 09:10:06;;;;;;;3.20;2.40;;;;;;;25.92;nan;-24535.31;5069109;28;20192;-64
2022/05/12 09:12:49;;;;;;;2.70;2.10;;;;;;;25.65;nan;-24527.75;5067223;28;20218;-66
2022/05/12 09:15:31;;;;;;;3.15;2.15;;;;;;;25.78;nan;-24531.47;5068615;28;20267;-66
2022/05/12 09:17:59;;;;;;;2.70;2.40;;;;;;;25.52;nan;-24524.44;5073121;28;21112;-67
2022/05/12 09:20:29;;;;;;;2.63;2.10;;;;;;;25.57;nan;-24525.56;5072573;28;20177;-66
2022/05/12 09:22:56;;;;;;;3.33;2.15;;;;;;;25.97;nan;-24536.41;5069361;28;20221;-63
2022/05/12 09:25:31;;;;;;;2.90;2.30;;;;;;;26.16;nan;-24541.78;5071796;28;20181;-64
2022/05/12 09:27:58;;;;;;;2.85;1.98;;;;;;;26.05;nan;-24538.75;5074755;28;20237;-64
2022/05/12 09:30:36;;;;;;;3.50;2.30;;;;;;;26.29;nan;-24545.22;5073794;28;20243;-64
2022/05/12 09:33:03;;;;;;;3.47;2.38;;;;;;;26.38;nan;-24547.69;5068853;28;20287;-65
2022/05/12 09:35:29;;;;;;;3.20;2.40;;;;;;;26.62;nan;-24554.13;5072622;28;20205;-66
2022/05/12 09:37:56;;;;;;;2.42;2.08;;;;;;;26.51;nan;-24551.13;5071224;28;20535;-65
2022/05/12 09:40:21;;;;;;;2.60;1.98;;;;;;;26.77;nan;-24558.25;5072767;28;20189;-64
2022/05/12 09:42:58;;;;;;;3.80;2.50;;;;;;;26.85;nan;-24560.44;5071413;28;20178;-63
2022/05/12 09:45:24;;;;;;;2.85;2.05;;;;;;;27.05;nan;-24565.94;5070991;28;20214;-63
2022/05/12 09:47:49;;;;;;;4.05;2.22;;;;;;;26.58;nan;-24553.03;5070909;28;20224;-65
2022/05/12 09:50:25;;;;;;;3.10;2.10;;;;;;;26.53;nan;-24551.81;5070465;28;20177;-62
2022/05/12 09:52:53;;;;;;;2.55;2.10;;;;;;;26.89;nan;-24561.56;5070673;28;20298;-67
2022/05/12 09:55:27;;;;;;;2.97;2.05;;;;;;;26.91;nan;-24562.09;5068849;28;20233;-64
2022/05/12 09:58:00;;;;;;;4.05;2.63;;;;;;;26.96;nan;-24563.47;5069285;28;20173;-66
2022/05/12 10:01:03;;;;;;;3.55;2.45;;;;;;;26.86;nan;-24560.72;5073317;28;20290;-64
2022/05/12 10:09:16;;;;;;;2.95;2.10;;;;;;;26.56;nan;-24552.63;5063151;28;20177;-64
2022/05/12 10:12:03;;;;;;;2.60;2.22;;;;;;;25.93;nan;-24535.59;5069853;28;20174;-64
2022/05/12 10:14:40;;;;;;;2.63;2.00;;;;;;;26.75;nan;-24557.84;5068280;28;20218;-64
2022/05/12 10:17:23;;;;;;;2.50;2.00;;;;;;;26.65;nan;-24554.97;5074370;28;20196;-64
2022/05/12 10:19:49;;;;;;;2.58;2.10;;;;;;;26.90;nan;-24561.81;5071375;28;20173;-64
2022/05/12 10:22:28;;;;;;;3.83;2.00;;;;;;;27.18;nan;-24569.38;5070077;28;20609;-65
2022/05/12 10:25:05;;;;;;;1.70;1.60;;;;;;;27.06;nan;-24566.22;5069898;28;20186;-66
2022/05/12 10:28:02;;;;;;;2.25;1.95;;;;;;;27.30;nan;-24572.66;5070586;28;20170;-63
2022/05/12 10:30:37;;;;;;;2.55;2.10;;;;;;;27.49;nan;-24577.72;5045206;28;20632;-65
2022/05/12 10:33:12;;;;;;;2.97;1.90;;;;;;;27.71;nan;-24583.75;5070057;28;20227;-63
2022/05/12 10:35:40;;;;;;;2.58;2.08;;;;;;;27.74;nan;-24584.59;5075135;28;20228;-64
2022/05/12 10:38:08;;;;;;;2.70;1.92;;;;;;;27.67;nan;-24582.66;5076453;28;20695;-64
2022/05/12 10:40:44;;;;;;;2.20;1.58;;;;;;;26.91;nan;-24561.97;5073925;28;20228;-64
2022/05/12 10:43:19;;;;;;;2.10;1.60;;;;;;;26.22;nan;-24543.28;5074117;28;20194;-64
2022/05/12 10:45:57;;;;;;;2.10;1.90;;;;;;;26.33;nan;-24546.44;5073561;28;20208;-64
2022/05/12 10:48:28;;;;;;;2.28;1.67;;;;;;;26.03;nan;-24538.19;5074168;28;20259;-65
2022/05/12 10:51:26;;;;;;;2.65;1.90;;;;;;;26.34;nan;-24546.72;5074564;28;20239;-64
2022/05/12 10:54:20;;;;;;;2.83;1.88;;;;;;;27.08;nan;-24566.63;5073679;28;20224;-63
2022/05/12 10:57:20;;;;;;;1.80;1.55;;;;;;;26.65;nan;-24554.97;5074089;28;20170;-63
2022/05/12 10:59:51;;;;;;;3.15;1.83;;;;;;;26.83;nan;-24559.91;5074491;28;20542;-63
2022/05/12 11:02:30;;;;;;;5.93;1.70;;;;;;;26.84;nan;-24560.16;5074463;28;20185;-62
2022/05/12 11:05:08;;;;;;;7.00;2.28;;;;;;;26.34;nan;-24546.72;5075206;28;20237;-65
2022/05/12 11:07:45;;;;;;;2.15;1.58;;;;;;;26.59;nan;-24553.44;5074355;28;20169;-66
2022/05/12 11:10:32;;;;;;;2.28;1.67;;;;;;;26.64;nan;-24554.81;5073988;28;20170;-67
2022/05/12 11:13:10;;;;;;;1.95;1.60;;;;;;;26.49;nan;-24550.56;5074385;28;20166;-66
2022/05/12 11:15:57;;;;;;;1.95;1.67;;;;;;;26.82;nan;-24559.63;5078398;28;20253;-66
2022/05/12 11:18:37;;;;;;;2.00;1.70;;;;;;;26.87;nan;-24561.00;5068412;28;20182;-64
2022/05/12 11:21:13;;;;;;;2.63;1.73;;;;;;;26.99;nan;-24564.16;5076472;28;20178;-67
2022/05/12 11:23:53;;;;;;;2.00;1.60;;;;;;;26.99;nan;-24564.28;5075138;28;20679;-66
2022/05/12 11:26:49;;;;;;;2.45;1.80;;;;;;;27.28;nan;-24571.97;5079880;28;20678;-62
2022/05/12 11:29:43;;;;;;;2.17;1.77;;;;;;;26.48;nan;-24550.28;5075726;28;20332;-64
2022/05/12 11:32:18;;;;;;;2.30;1.75;;;;;;;26.50;nan;-24550.84;5076218;28;20192;-62
2022/05/12 11:34:49;;;;;;;6.00;2.03;;;;;;;26.42;nan;-24548.78;5075147;28;20232;-65
2022/05/12 11:37:33;;;;;;;2.45;2.00;;;;;;;26.58;nan;-24553.03;5076192;28;20189;-64
2022/05/12 11:40:02;;;;;;;2.45;1.90;;;;;;;26.84;nan;-24560.16;5075477;28;20311;-64
2022/05/12 11:45:37;;;;;;;4.32;2.33;;;;;;;26.81;nan;-24559.50;5066823;28;20195;-65
2022/05/12 11:48:30;;;;;;;4.45;2.10;;;;;;;26.97;nan;-24563.75;5075768;28;20642;-63
2022/05/12 11:51:07;;;;;;;1.67;1.50;;;;;;;26.95;nan;-24563.06;5075285;28;20177;-63
2022/05/12 11:53:55;;;;;;;2.25;1.80;;;;;;;27.53;nan;-24578.81;5065503;28;20222;-62
2022/05/12 11:56:49;;;;;;;2.17;1.70;;;;;;;27.52;nan;-24578.56;5078223;28;20201;-65
2022/05/12 11:59:20;;;;;;;1.85;1.30;;;;;;;27.12;nan;-24567.84;5071350;28;20691;-64
2022/05/12 12:01:56;;;;;;;2.50;1.52;;;;;;;27.04;nan;-24565.66;5077739;28;20281;-66
2022/05/12 12:04:36;;;;;;;2.53;1.88;;;;;;;27.08;nan;-24566.75;5075622;28;20186;-64
2022/05/12 12:07:04;;;;;;;2.40;1.58;;;;;;;26.91;nan;-24561.97;5075651;28;20216;-66
2022/05/12 12:09:37;;;;;;;2.30;1.73;;;;;;;27.32;nan;-24573.06;5077437;28;20220;-65
2022/05/12 12:12:08;;;;;;;2.08;1.75;;;;;;;27.46;nan;-24577.03;5081235;28;20658;-65